sensor_id;sensor_type;location;lat;lon;timestamp;P1;durP1;ratioP1;P2;durP2;ratioP2
46931;SDS011;32670;51.464;11.964;2023-03-20T00:01:15;5.00;;;4.60;;
46931;SDS011;32670;51.464;11.964;2023-03-20T00:03:43;5.03;;;4.53;;
46931;SDS011;32670;51.464;11.964;2023-03-20T00:06:15;5.50;;;4.60;;
46931;SDS011;32670;51.464;11.964;2023-03-20T00:08:42;4.77;;;4.37;;
46931;SDS011;32670;51.464;11.964;2023-03-20T00:14:01;4.77;;;4.37;;
46931;SDS011;32670;51.464;11.964;2023-03-20T00:16:31;4.63;;;4.23;;
46931;SDS011;32670;51.464;11.964;2023-03-20T00:19:02;4.83;;;4.43;;
46931;SDS011;32670;51.464;11.964;2023-03-20T00:21:29;5.17;;;4.70;;
46931;SDS011;32670;51.464;11.964;2023-03-20T00:23:55;5.53;;;4.53;;
46931;SDS011;32670;51.464;11.964;2023-03-20T00:26:22;4.70;;;4.27;;
46931;SDS011;32670;51.464;11.964;2023-03-20T00:28:51;4.73;;;4.33;;
46931;SDS011;32670;51.464;11.964;2023-03-20T00:31:22;5.37;;;4.30;;
46931;SDS011;32670;51.464;11.964;2023-03-20T00:33:51;4.37;;;3.97;;
46931;SDS011;32670;51.464;11.964;2023-03-20T00:36:18;5.07;;;4.50;;
46931;SDS011;32670;51.464;11.964;2023-03-20T00:38:43;6.23;;;4.40;;
46931;SDS011;32670;51.464;11.964;2023-03-20T00:41:28;4.57;;;4.17;;
46931;SDS011;32670;51.464;11.964;2023-03-20T00:44:17;5.93;;;4.30;;
46931;SDS011;32670;51.464;11.964;2023-03-20T00:46:49;4.63;;;4.13;;
46931;SDS011;32670;51.464;11.964;2023-03-20T00:49:19;6.87;;;3.90;;
46931;SDS011;32670;51.464;11.964;2023-03-20T00:51:49;5.17;;;4.20;;
46931;SDS011;32670;51.464;11.964;2023-03-20T00:54:15;5.70;;;4.37;;
46931;SDS011;32670;51.464;11.964;2023-03-20T00:56:42;5.23;;;4.17;;
46931;SDS011;32670;51.464;11.964;2023-03-20T00:59:19;4.57;;;4.17;;
46931;SDS011;32670;51.464;11.964;2023-03-20T01:01:47;4.27;;;3.97;;
46931;SDS011;32670;51.464;11.964;2023-03-20T01:04:13;4.67;;;4.20;;
46931;SDS011;32670;51.464;11.964;2023-03-20T01:06:42;9.17;;;4.10;;
46931;SDS011;32670;51.464;11.964;2023-03-20T01:09:08;4.50;;;4.10;;
46931;SDS011;32670;51.464;11.964;2023-03-20T01:11:34;4.60;;;4.17;;
46931;SDS011;32670;51.464;11.964;2023-03-20T01:14:01;6.10;;;4.00;;
46931;SDS011;32670;51.464;11.964;2023-03-20T01:16:27;4.73;;;4.00;;
46931;SDS011;32670;51.464;11.964;2023-03-20T01:18:52;4.47;;;4.07;;
46931;SDS011;32670;51.464;11.964;2023-03-20T01:21:18;4.60;;;4.10;;
46931;SDS011;32670;51.464;11.964;2023-03-20T01:23:44;4.70;;;4.30;;
46931;SDS011;32670;51.464;11.964;2023-03-20T01:26:16;4.77;;;4.27;;
46931;SDS011;32670;51.464;11.964;2023-03-20T01:28:46;4.60;;;4.10;;
46931;SDS011;32670;51.464;11.964;2023-03-20T01:31:12;5.40;;;3.90;;
46931;SDS011;32670;51.464;11.964;2023-03-20T01:33:40;4.73;;;4.20;;
46931;SDS011;32670;51.464;11.964;2023-03-20T01:36:07;4.10;;;3.80;;
46931;SDS011;32670;51.464;11.964;2023-03-20T01:38:35;4.40;;;4.00;;
46931;SDS011;32670;51.464;11.964;2023-03-20T01:41:13;4.57;;;4.13;;
46931;SDS011;32670;51.464;11.964;2023-03-20T01:43:41;6.23;;;4.13;;
46931;SDS011;32670;51.464;11.964;2023-03-20T01:53:50;4.17;;;3.87;;
46931;SDS011;32670;51.464;11.964;2023-03-20T01:56:21;4.43;;;4.03;;
46931;SDS011;32670;51.464;11.964;2023-03-20T01:58:47;4.13;;;3.83;;
46931;SDS011;32670;51.464;11.964;2023-03-20T02:01:17;4.40;;;4.00;;
46931;SDS011;32670;51.464;11.964;2023-03-20T02:03:44;4.60;;;4.20;;
46931;SDS011;32670;51.464;11.964;2023-03-20T02:06:13;4.20;;;3.80;;
46931;SDS011;32670;51.464;11.964;2023-03-20T02:08:44;4.60;;;4.20;;
46931;SDS011;32670;51.464;11.964;2023-03-20T02:11:14;4.00;;;3.70;;
46931;SDS011;32670;51.464;11.964;2023-03-20T02:13:42;4.37;;;3.97;;
46931;SDS011;32670;51.464;11.964;2023-03-20T02:16:15;4.53;;;3.87;;
46931;SDS011;32670;51.464;11.964;2023-03-20T02:18:42;6.13;;;4.10;;
46931;SDS011;32670;51.464;11.964;2023-03-20T02:21:23;4.93;;;3.97;;
46931;SDS011;32670;51.464;11.964;2023-03-20T02:27:22;4.53;;;4.13;;
46931;SDS011;32670;51.464;11.964;2023-03-20T02:30:04;4.37;;;3.70;;
46931;SDS011;32670;51.464;11.964;2023-03-20T02:33:06;4.60;;;4.20;;
46931;SDS011;32670;51.464;11.964;2023-03-20T02:39:12;4.53;;;3.90;;
46931;SDS011;32670;51.464;11.964;2023-03-20T02:42:05;5.13;;;3.80;;
46931;SDS011;32670;51.464;11.964;2023-03-20T02:44:42;6.30;;;4.10;;
46931;SDS011;32670;51.464;11.964;2023-03-20T02:47:30;4.20;;;3.80;;
46931;SDS011;32670;51.464;11.964;2023-03-20T02:50:20;5.07;;;3.90;;
46931;SDS011;32670;51.464;11.964;2023-03-20T02:53:00;4.40;;;4.00;;
46931;SDS011;32670;51.464;11.964;2023-03-20T02:55:50;4.73;;;3.87;;
46931;SDS011;32670;51.464;11.964;2023-03-20T02:58:30;4.40;;;4.00;;
46931;SDS011;32670;51.464;11.964;2023-03-20T03:01:10;4.17;;;3.80;;
46931;SDS011;32670;51.464;11.964;2023-03-20T03:03:43;4.17;;;3.77;;
46931;SDS011;32670;51.464;11.964;2023-03-20T03:06:24;4.83;;;4.43;;
46931;SDS011;32670;51.464;11.964;2023-03-20T03:09:00;4.10;;;3.70;;
46931;SDS011;32670;51.464;11.964;2023-03-20T03:11:31;4.23;;;3.83;;
46931;SDS011;32670;51.464;11.964;2023-03-20T03:14:01;5.73;;;3.83;;
46931;SDS011;32670;51.464;11.964;2023-03-20T03:16:29;4.10;;;3.70;;
46931;SDS011;32670;51.464;11.964;2023-03-20T03:19:09;5.10;;;3.50;;
46931;SDS011;32670;51.464;11.964;2023-03-20T03:21:40;4.70;;;3.50;;
46931;SDS011;32670;51.464;11.964;2023-03-20T03:24:06;4.20;;;3.80;;
46931;SDS011;32670;51.464;11.964;2023-03-20T03:26:47;4.80;;;3.60;;
46931;SDS011;32670;51.464;11.964;2023-03-20T03:29:14;4.40;;;3.63;;
46931;SDS011;32670;51.464;11.964;2023-03-20T03:31:41;3.90;;;3.60;;
46931;SDS011;32670;51.464;11.964;2023-03-20T03:34:11;3.90;;;3.53;;
46931;SDS011;32670;51.464;11.964;2023-03-20T03:36:43;4.30;;;3.87;;
46931;SDS011;32670;51.464;11.964;2023-03-20T03:41:42;5.07;;;3.67;;
46931;SDS011;32670;51.464;11.964;2023-03-20T03:47:11;4.00;;;3.60;;
46931;SDS011;32670;51.464;11.964;2023-03-20T03:49:47;3.73;;;3.43;;
46931;SDS011;32670;51.464;11.964;2023-03-20T03:52:16;4.20;;;3.80;;
46931;SDS011;32670;51.464;11.964;2023-03-20T03:54:50;3.97;;;3.67;;
46931;SDS011;32670;51.464;11.964;2023-03-20T03:57:21;3.80;;;3.50;;
46931;SDS011;32670;51.464;11.964;2023-03-20T03:59:53;4.77;;;3.70;;
46931;SDS011;32670;51.464;11.964;2023-03-20T04:02:21;4.23;;;3.50;;
46931;SDS011;32670;51.464;11.964;2023-03-20T04:04:48;4.03;;;3.63;;
46931;SDS011;32670;51.464;11.964;2023-03-20T04:07:16;3.83;;;3.53;;
46931;SDS011;32670;51.464;11.964;2023-03-20T04:09:41;4.17;;;3.43;;
46931;SDS011;32670;51.464;11.964;2023-03-20T04:12:17;4.10;;;3.77;;
46931;SDS011;32670;51.464;11.964;2023-03-20T04:15:01;4.27;;;3.30;;
46931;SDS011;32670;51.464;11.964;2023-03-20T04:17:28;5.47;;;3.80;;
46931;SDS011;32670;51.464;11.964;2023-03-20T04:19:53;4.20;;;3.60;;
46931;SDS011;32670;51.464;11.964;2023-03-20T04:22:19;3.70;;;3.23;;
46931;SDS011;32670;51.464;11.964;2023-03-20T04:24:44;3.70;;;3.40;;
46931;SDS011;32670;51.464;11.964;2023-03-20T04:27:10;3.93;;;3.60;;
46931;SDS011;32670;51.464;11.964;2023-03-20T04:29:36;3.73;;;3.27;;
46931;SDS011;32670;51.464;11.964;2023-03-20T04:32:02;3.50;;;3.20;;
46931;SDS011;32670;51.464;11.964;2023-03-20T04:34:27;3.27;;;3.00;;
46931;SDS011;32670;51.464;11.964;2023-03-20T04:36:53;4.80;;;3.13;;
46931;SDS011;32670;51.464;11.964;2023-03-20T04:39:19;3.50;;;3.20;;
46931;SDS011;32670;51.464;11.964;2023-03-20T04:41:45;7.60;;;3.50;;
46931;SDS011;32670;51.464;11.964;2023-03-20T04:44:11;5.33;;;3.33;;
46931;SDS011;32670;51.464;11.964;2023-03-20T04:46:36;6.40;;;3.40;;
46931;SDS011;32670;51.464;11.964;2023-03-20T04:49:02;4.57;;;3.30;;
46931;SDS011;32670;51.464;11.964;2023-03-20T04:51:27;5.47;;;3.20;;
46931;SDS011;32670;51.464;11.964;2023-03-20T04:53:53;7.73;;;3.53;;
46931;SDS011;32670;51.464;11.964;2023-03-20T04:56:18;5.93;;;3.43;;
46931;SDS011;32670;51.464;11.964;2023-03-20T04:58:44;4.73;;;3.40;;
46931;SDS011;32670;51.464;11.964;2023-03-20T05:01:09;3.73;;;2.90;;
46931;SDS011;32670;51.464;11.964;2023-03-20T05:03:35;6.10;;;3.23;;
46931;SDS011;32670;51.464;11.964;2023-03-20T05:06:00;3.80;;;3.50;;
46931;SDS011;32670;51.464;11.964;2023-03-20T05:08:25;5.13;;;3.90;;
46931;SDS011;32670;51.464;11.964;2023-03-20T05:10:51;3.50;;;3.20;;
46931;SDS011;32670;51.464;11.964;2023-03-20T05:13:17;7.53;;;3.33;;
46931;SDS011;32670;51.464;11.964;2023-03-20T05:15:42;3.50;;;3.20;;
46931;SDS011;32670;51.464;11.964;2023-03-20T05:18:08;3.63;;;3.30;;
46931;SDS011;32670;51.464;11.964;2023-03-20T05:20:33;3.90;;;3.60;;
46931;SDS011;32670;51.464;11.964;2023-03-20T05:23:00;3.60;;;3.30;;
46931;SDS011;32670;51.464;11.964;2023-03-20T05:25:26;3.50;;;3.20;;
46931;SDS011;32670;51.464;11.964;2023-03-20T05:27:51;3.80;;;3.43;;
46931;SDS011;32670;51.464;11.964;2023-03-20T05:30:17;3.60;;;3.00;;
46931;SDS011;32670;51.464;11.964;2023-03-20T05:32:43;3.80;;;3.10;;
46931;SDS011;32670;51.464;11.964;2023-03-20T05:35:09;3.63;;;3.33;;
46931;SDS011;32670;51.464;11.964;2023-03-20T05:37:35;3.73;;;3.40;;
46931;SDS011;32670;51.464;11.964;2023-03-20T05:40:01;4.30;;;3.30;;
46931;SDS011;32670;51.464;11.964;2023-03-20T05:42:27;3.40;;;2.93;;
46931;SDS011;32670;51.464;11.964;2023-03-20T05:44:52;3.70;;;3.37;;
46931;SDS011;32670;51.464;11.964;2023-03-20T05:47:18;3.60;;;3.30;;
46931;SDS011;32670;51.464;11.964;2023-03-20T05:49:43;3.67;;;3.00;;
46931;SDS011;32670;51.464;11.964;2023-03-20T05:52:09;3.77;;;3.10;;
46931;SDS011;32670;51.464;11.964;2023-03-20T05:54:35;3.50;;;3.20;;
46931;SDS011;32670;51.464;11.964;2023-03-20T05:57:00;3.23;;;3.00;;
46931;SDS011;32670;51.464;11.964;2023-03-20T05:59:26;4.40;;;3.20;;
46931;SDS011;32670;51.464;11.964;2023-03-20T06:01:51;3.40;;;3.10;;
46931;SDS011;32670;51.464;11.964;2023-03-20T06:04:16;3.40;;;3.10;;
46931;SDS011;32670;51.464;11.964;2023-03-20T06:06:42;3.20;;;2.90;;
46931;SDS011;32670;51.464;11.964;2023-03-20T06:09:07;3.30;;;3.00;;
46931;SDS011;32670;51.464;11.964;2023-03-20T06:11:33;3.43;;;3.13;;
46931;SDS011;32670;51.464;11.964;2023-03-20T06:13:58;4.17;;;3.17;;
46931;SDS011;32670;51.464;11.964;2023-03-20T06:16:24;3.03;;;2.80;;
46931;SDS011;32670;51.464;11.964;2023-03-20T06:18:50;3.20;;;2.90;;
46931;SDS011;32670;51.464;11.964;2023-03-20T06:21:16;3.23;;;2.90;;
46931;SDS011;32670;51.464;11.964;2023-03-20T06:23:41;4.20;;;3.10;;
46931;SDS011;32670;51.464;11.964;2023-03-20T06:26:07;3.47;;;2.87;;
46931;SDS011;32670;51.464;11.964;2023-03-20T06:28:32;4.13;;;3.10;;
46931;SDS011;32670;51.464;11.964;2023-03-20T06:30:58;4.20;;;3.07;;
46931;SDS011;32670;51.464;11.964;2023-03-20T06:33:23;3.63;;;3.33;;
46931;SDS011;32670;51.464;11.964;2023-03-20T06:35:49;4.47;;;3.20;;
46931;SDS011;32670;51.464;11.964;2023-03-20T06:38:15;12.90;;;11.53;;
46931;SDS011;32670;51.464;11.964;2023-03-20T06:40:40;18.33;;;16.10;;
46931;SDS011;32670;51.464;11.964;2023-03-20T06:43:07;22.00;;;19.93;;
46931;SDS011;32670;51.464;11.964;2023-03-20T06:45:32;22.17;;;19.97;;
46931;SDS011;32670;51.464;11.964;2023-03-20T06:47:58;22.73;;;20.47;;
46931;SDS011;32670;51.464;11.964;2023-03-20T06:50:23;22.50;;;20.30;;
46931;SDS011;32670;51.464;11.964;2023-03-20T06:52:49;23.23;;;21.03;;
46931;SDS011;32670;51.464;11.964;2023-03-20T06:55:15;24.63;;;22.33;;
46931;SDS011;32670;51.464;11.964;2023-03-20T06:57:40;25.10;;;22.70;;
46931;SDS011;32670;51.464;11.964;2023-03-20T07:00:06;25.07;;;22.67;;
46931;SDS011;32670;51.464;11.964;2023-03-20T07:02:34;25.90;;;23.40;;
46931;SDS011;32670;51.464;11.964;2023-03-20T07:05:00;24.97;;;22.70;;
46931;SDS011;32670;51.464;11.964;2023-03-20T07:07:25;26.70;;;24.20;;
46931;SDS011;32670;51.464;11.964;2023-03-20T07:09:51;25.50;;;23.00;;
46931;SDS011;32670;51.464;11.964;2023-03-20T07:12:16;27.17;;;24.63;;
46931;SDS011;32670;51.464;11.964;2023-03-20T07:14:44;27.90;;;25.03;;
46931;SDS011;32670;51.464;11.964;2023-03-20T07:17:10;26.97;;;24.07;;
46931;SDS011;32670;51.464;11.964;2023-03-20T07:19:36;25.90;;;23.40;;
46931;SDS011;32670;51.464;11.964;2023-03-20T07:22:03;26.10;;;23.30;;
46931;SDS011;32670;51.464;11.964;2023-03-20T07:24:31;23.97;;;21.70;;
46931;SDS011;32670;51.464;11.964;2023-03-20T07:26:57;21.67;;;19.50;;
46931;SDS011;32670;51.464;11.964;2023-03-20T07:29:23;21.23;;;19.23;;
46931;SDS011;32670;51.464;11.964;2023-03-20T07:31:48;19.43;;;17.53;;
46931;SDS011;32670;51.464;11.964;2023-03-20T07:34:14;19.43;;;17.53;;
46931;SDS011;32670;51.464;11.964;2023-03-20T07:36:40;18.73;;;16.93;;
46931;SDS011;32670;51.464;11.964;2023-03-20T07:39:06;19.40;;;17.40;;
46931;SDS011;32670;51.464;11.964;2023-03-20T07:41:32;19.23;;;17.37;;
46931;SDS011;32670;51.464;11.964;2023-03-20T07:43:58;20.23;;;18.23;;
46931;SDS011;32670;51.464;11.964;2023-03-20T07:46:24;21.37;;;18.17;;
46931;SDS011;32670;51.464;11.964;2023-03-20T07:48:50;21.63;;;16.63;;
46931;SDS011;32670;51.464;11.964;2023-03-20T07:51:16;19.53;;;15.87;;
46931;SDS011;32670;51.464;11.964;2023-03-20T07:53:41;16.37;;;14.60;;
46931;SDS011;32670;51.464;11.964;2023-03-20T07:56:07;19.87;;;14.23;;
46931;SDS011;32670;51.464;11.964;2023-03-20T07:58:33;18.20;;;13.47;;
46931;SDS011;32670;51.464;11.964;2023-03-20T08:00:58;13.40;;;12.00;;
46931;SDS011;32670;51.464;11.964;2023-03-20T08:03:23;13.17;;;11.53;;
46931;SDS011;32670;51.464;11.964;2023-03-20T08:05:49;14.20;;;10.90;;
46931;SDS011;32670;51.464;11.964;2023-03-20T08:08:14;12.60;;;10.57;;
46931;SDS011;32670;51.464;11.964;2023-03-20T08:10:40;10.97;;;9.83;;
46931;SDS011;32670;51.464;11.964;2023-03-20T08:13:05;11.47;;;9.90;;
46931;SDS011;32670;51.464;11.964;2023-03-20T08:15:31;12.73;;;9.00;;
46931;SDS011;32670;51.464;11.964;2023-03-20T08:17:56;9.87;;;8.70;;
46931;SDS011;32670;51.464;11.964;2023-03-20T08:20:22;10.10;;;9.13;;
46931;SDS011;32670;51.464;11.964;2023-03-20T08:22:48;9.13;;;8.20;;
46931;SDS011;32670;51.464;11.964;2023-03-20T08:25:14;10.30;;;8.10;;
46931;SDS011;32670;51.464;11.964;2023-03-20T08:27:40;8.37;;;7.53;;
46931;SDS011;32670;51.464;11.964;2023-03-20T08:30:06;8.27;;;7.47;;
46931;SDS011;32670;51.464;11.964;2023-03-20T08:32:33;9.00;;;7.50;;
46931;SDS011;32670;51.464;11.964;2023-03-20T08:34:59;10.20;;;7.87;;
46931;SDS011;32670;51.464;11.964;2023-03-20T08:37:25;8.90;;;8.00;;
46931;SDS011;32670;51.464;11.964;2023-03-20T08:39:51;8.47;;;7.77;;
46931;SDS011;32670;51.464;11.964;2023-03-20T08:42:17;8.07;;;7.37;;
46931;SDS011;32670;51.464;11.964;2023-03-20T08:44:42;8.17;;;7.23;;
46931;SDS011;32670;51.464;11.964;2023-03-20T08:47:08;7.90;;;7.20;;
46931;SDS011;32670;51.464;11.964;2023-03-20T08:49:35;7.80;;;7.00;;
46931;SDS011;32670;51.464;11.964;2023-03-20T08:52:01;7.80;;;7.17;;
46931;SDS011;32670;51.464;11.964;2023-03-20T08:54:30;7.80;;;7.10;;
46931;SDS011;32670;51.464;11.964;2023-03-20T08:56:55;8.20;;;7.40;;
46931;SDS011;32670;51.464;11.964;2023-03-20T08:59:21;7.13;;;6.50;;
46931;SDS011;32670;51.464;11.964;2023-03-20T09:01:46;9.00;;;7.80;;
46931;SDS011;32670;51.464;11.964;2023-03-20T09:04:12;7.70;;;7.10;;
46931;SDS011;32670;51.464;11.964;2023-03-20T09:06:38;7.27;;;6.47;;
46931;SDS011;32670;51.464;11.964;2023-03-20T09:09:04;7.33;;;6.70;;
46931;SDS011;32670;51.464;11.964;2023-03-20T09:11:31;7.37;;;6.70;;
46931;SDS011;32670;51.464;11.964;2023-03-20T09:13:57;7.00;;;6.33;;
46931;SDS011;32670;51.464;11.964;2023-03-20T09:16:23;7.40;;;6.80;;
46931;SDS011;32670;51.464;11.964;2023-03-20T09:18:49;7.03;;;6.43;;
46931;SDS011;32670;51.464;11.964;2023-03-20T09:21:14;8.67;;;7.67;;
46931;SDS011;32670;51.464;11.964;2023-03-20T09:23:40;7.43;;;6.83;;
46931;SDS011;32670;51.464;11.964;2023-03-20T09:26:05;7.20;;;6.60;;
46931;SDS011;32670;51.464;11.964;2023-03-20T09:28:31;7.83;;;7.03;;
46931;SDS011;32670;51.464;11.964;2023-03-20T09:30:57;7.60;;;6.90;;
46931;SDS011;32670;51.464;11.964;2023-03-20T09:33:23;7.90;;;7.10;;
46931;SDS011;32670;51.464;11.964;2023-03-20T09:35:49;6.83;;;6.33;;
46931;SDS011;32670;51.464;11.964;2023-03-20T09:38:15;7.40;;;6.80;;
46931;SDS011;32670;51.464;11.964;2023-03-20T09:40:56;7.10;;;6.50;;
46931;SDS011;32670;51.464;11.964;2023-03-20T09:43:34;7.57;;;6.97;;
46931;SDS011;32670;51.464;11.964;2023-03-20T09:46:17;6.87;;;6.23;;
46931;SDS011;32670;51.464;11.964;2023-03-20T09:49:16;7.10;;;6.50;;
46931;SDS011;32670;51.464;11.964;2023-03-20T09:54:58;8.30;;;6.80;;
46931;SDS011;32670;51.464;11.964;2023-03-20T09:57:31;7.00;;;6.33;;
46931;SDS011;32670;51.464;11.964;2023-03-20T10:00:05;6.67;;;6.10;;
46931;SDS011;32670;51.464;11.964;2023-03-20T10:05:28;6.47;;;5.97;;
46931;SDS011;32670;51.464;11.964;2023-03-20T10:07:57;7.07;;;6.43;;
46931;SDS011;32670;51.464;11.964;2023-03-20T10:10:46;6.70;;;6.20;;
46931;SDS011;32670;51.464;11.964;2023-03-20T10:19:27;6.83;;;6.33;;
46931;SDS011;32670;51.464;11.964;2023-03-20T10:22:24;6.70;;;6.20;;
46931;SDS011;32670;51.464;11.964;2023-03-20T10:24:57;6.33;;;5.80;;
46931;SDS011;32670;51.464;11.964;2023-03-20T10:27:33;6.40;;;5.90;;
46931;SDS011;32670;51.464;11.964;2023-03-20T10:30:10;6.17;;;5.67;;
46931;SDS011;32670;51.464;11.964;2023-03-20T10:39:02;6.80;;;6.30;;
46931;SDS011;32670;51.464;11.964;2023-03-20T10:41:41;6.80;;;6.20;;
46931;SDS011;32670;51.464;11.964;2023-03-20T10:44:16;7.03;;;6.50;;
46931;SDS011;32670;51.464;11.964;2023-03-20T10:46:50;6.57;;;6.07;;
46931;SDS011;32670;51.464;11.964;2023-03-20T10:49:33;5.80;;;5.30;;
46931;SDS011;32670;51.464;11.964;2023-03-20T10:52:15;6.20;;;5.70;;
46931;SDS011;32670;51.464;11.964;2023-03-20T10:54:44;6.63;;;5.97;;
46931;SDS011;32670;51.464;11.964;2023-03-20T10:57:22;6.27;;;5.77;;
46931;SDS011;32670;51.464;11.964;2023-03-20T10:59:50;6.37;;;5.87;;
46931;SDS011;32670;51.464;11.964;2023-03-20T11:02:18;6.30;;;5.70;;
46931;SDS011;32670;51.464;11.964;2023-03-20T11:04:45;6.30;;;5.80;;
46931;SDS011;32670;51.464;11.964;2023-03-20T11:07:18;5.83;;;5.43;;
46931;SDS011;32670;51.464;11.964;2023-03-20T11:12:50;5.77;;;5.37;;
46931;SDS011;32670;51.464;11.964;2023-03-20T11:15:20;5.93;;;5.53;;
46931;SDS011;32670;51.464;11.964;2023-03-20T11:17:51;5.90;;;5.40;;
46931;SDS011;32670;51.464;11.964;2023-03-20T11:20:21;6.30;;;5.70;;
46931;SDS011;32670;51.464;11.964;2023-03-20T11:22:47;5.67;;;5.27;;
46931;SDS011;32670;51.464;11.964;2023-03-20T11:25:21;6.00;;;5.60;;
46931;SDS011;32670;51.464;11.964;2023-03-20T11:27:53;5.80;;;5.30;;
46931;SDS011;32670;51.464;11.964;2023-03-20T11:30:19;5.97;;;5.47;;
46931;SDS011;32670;51.464;11.964;2023-03-20T11:32:48;5.87;;;5.37;;
46931;SDS011;32670;51.464;11.964;2023-03-20T11:37:50;6.13;;;5.73;;
46931;SDS011;32670;51.464;11.964;2023-03-20T11:42:51;5.93;;;5.43;;
46931;SDS011;32670;51.464;11.964;2023-03-20T11:45:18;6.07;;;5.57;;
46931;SDS011;32670;51.464;11.964;2023-03-20T11:47:47;5.87;;;5.47;;
46931;SDS011;32670;51.464;11.964;2023-03-20T11:50:23;6.10;;;5.50;;
46931;SDS011;32670;51.464;11.964;2023-03-20T11:53:01;5.70;;;5.27;;
46931;SDS011;32670;51.464;11.964;2023-03-20T11:55:31;5.80;;;5.30;;
46931;SDS011;32670;51.464;11.964;2023-03-20T11:57:59;5.73;;;5.30;;
46931;SDS011;32670;51.464;11.964;2023-03-20T12:00:27;5.63;;;5.23;;
46931;SDS011;32670;51.464;11.964;2023-03-20T12:02:59;5.70;;;5.30;;
46931;SDS011;32670;51.464;11.964;2023-03-20T12:08:07;5.87;;;5.37;;
46931;SDS011;32670;51.464;11.964;2023-03-20T12:10:40;5.63;;;5.23;;
46931;SDS011;32670;51.464;11.964;2023-03-20T12:13:19;5.43;;;5.03;;
46931;SDS011;32670;51.464;11.964;2023-03-20T12:15:51;8.53;;;7.80;;
46931;SDS011;32670;51.464;11.964;2023-03-20T12:18:25;8.10;;;7.50;;
46931;SDS011;32670;51.464;11.964;2023-03-20T12:26:50;6.47;;;5.93;;
46931;SDS011;32670;51.464;11.964;2023-03-20T12:29:35;11.20;;;10.10;;
46931;SDS011;32670;51.464;11.964;2023-03-20T12:32:25;7.80;;;7.10;;
46931;SDS011;32670;51.464;11.964;2023-03-20T12:35:21;7.67;;;6.97;;
46931;SDS011;32670;51.464;11.964;2023-03-20T12:37:56;8.40;;;7.60;;
46931;SDS011;32670;51.464;11.964;2023-03-20T12:40:26;8.90;;;7.23;;
46931;SDS011;32670;51.464;11.964;2023-03-20T12:43:13;7.67;;;7.03;;
46931;SDS011;32670;51.464;11.964;2023-03-20T12:46:01;7.70;;;7.10;;
46931;SDS011;32670;51.464;11.964;2023-03-20T12:48:47;7.77;;;7.07;;
46931;SDS011;32670;51.464;11.964;2023-03-20T12:54:20;8.00;;;7.33;;
46931;SDS011;32670;51.464;11.964;2023-03-20T12:56:50;7.67;;;7.07;;
46931;SDS011;32670;51.464;11.964;2023-03-20T12:59:41;7.77;;;7.13;;
46931;SDS011;32670;51.464;11.964;2023-03-20T13:02:29;7.33;;;6.73;;
46931;SDS011;32670;51.464;11.964;2023-03-20T13:05:57;7.73;;;7.03;;
46931;SDS011;32670;51.464;11.964;2023-03-20T13:08:19;7.50;;;6.90;;
46931;SDS011;32670;51.464;11.964;2023-03-20T13:11:00;8.57;;;6.70;;
46931;SDS011;32670;51.464;11.964;2023-03-20T13:13:36;7.30;;;6.70;;
46931;SDS011;32670;51.464;11.964;2023-03-20T13:16:23;7.53;;;6.90;;
46931;SDS011;32670;51.464;11.964;2023-03-20T13:19:10;8.03;;;7.33;;
46931;SDS011;32670;51.464;11.964;2023-03-20T13:22:03;8.00;;;7.30;;
46931;SDS011;32670;51.464;11.964;2023-03-20T13:30:12;7.63;;;7.03;;
46931;SDS011;32670;51.464;11.964;2023-03-20T13:33:25;7.30;;;6.77;;
46931;SDS011;32670;51.464;11.964;2023-03-20T13:38:51;7.37;;;6.77;;
46931;SDS011;32670;51.464;11.964;2023-03-20T13:41:23;7.40;;;6.80;;
46931;SDS011;32670;51.464;11.964;2023-03-20T13:43:50;6.83;;;6.33;;
46931;SDS011;32670;51.464;11.964;2023-03-20T13:46:24;6.90;;;6.30;;
46931;SDS011;32670;51.464;11.964;2023-03-20T13:48:57;7.20;;;6.53;;
46931;SDS011;32670;51.464;11.964;2023-03-20T13:56:54;7.00;;;6.50;;
46931;SDS011;32670;51.464;11.964;2023-03-20T14:02:49;8.10;;;7.43;;
46931;SDS011;32670;51.464;11.964;2023-03-20T14:05:30;11.73;;;10.63;;
46931;SDS011;32670;51.464;11.964;2023-03-20T14:08:20;10.10;;;9.20;;
46931;SDS011;32670;51.464;11.964;2023-03-20T14:10:46;10.37;;;9.40;;
46931;SDS011;32670;51.464;11.964;2023-03-20T14:13:18;9.37;;;8.57;;
46931;SDS011;32670;51.464;11.964;2023-03-20T14:15:45;9.40;;;8.67;;
46931;SDS011;32670;51.464;11.964;2023-03-20T14:18:17;9.20;;;8.33;;
46931;SDS011;32670;51.464;11.964;2023-03-20T14:20:50;9.40;;;8.50;;
46931;SDS011;32670;51.464;11.964;2023-03-20T14:23:32;9.63;;;8.83;;
46931;SDS011;32670;51.464;11.964;2023-03-20T14:28:58;9.37;;;8.57;;
46931;SDS011;32670;51.464;11.964;2023-03-20T14:31:28;9.97;;;9.07;;
46931;SDS011;32670;51.464;11.964;2023-03-20T14:34:06;9.40;;;8.60;;
46931;SDS011;32670;51.464;11.964;2023-03-20T14:36:44;9.17;;;8.37;;
46931;SDS011;32670;51.464;11.964;2023-03-20T14:39:29;9.67;;;8.80;;
46931;SDS011;32670;51.464;11.964;2023-03-20T14:42:19;9.37;;;8.67;;
46931;SDS011;32670;51.464;11.964;2023-03-20T14:50:29;9.57;;;8.67;;
46931;SDS011;32670;51.464;11.964;2023-03-20T14:53:17;9.57;;;8.77;;
46931;SDS011;32670;51.464;11.964;2023-03-20T15:01:25;9.40;;;8.60;;
46931;SDS011;32670;51.464;11.964;2023-03-20T15:04:04;8.50;;;7.80;;
46931;SDS011;32670;51.464;11.964;2023-03-20T15:06:43;8.90;;;8.20;;
46931;SDS011;32670;51.464;11.964;2023-03-20T15:09:12;9.13;;;8.33;;
46931;SDS011;32670;51.464;11.964;2023-03-20T15:11:38;9.40;;;8.60;;
46931;SDS011;32670;51.464;11.964;2023-03-20T15:14:16;9.10;;;8.20;;
46931;SDS011;32670;51.464;11.964;2023-03-20T15:16:46;8.67;;;7.87;;
46931;SDS011;32670;51.464;11.964;2023-03-20T15:19:18;8.47;;;7.77;;
46931;SDS011;32670;51.464;11.964;2023-03-20T15:21:47;8.60;;;7.90;;
46931;SDS011;32670;51.464;11.964;2023-03-20T15:24:28;8.50;;;7.77;;
46931;SDS011;32670;51.464;11.964;2023-03-20T15:27:17;8.93;;;8.20;;
46931;SDS011;32670;51.464;11.964;2023-03-20T15:29:49;9.03;;;8.23;;
46931;SDS011;32670;51.464;11.964;2023-03-20T15:32:19;8.30;;;7.60;;
46931;SDS011;32670;51.464;11.964;2023-03-20T15:34:44;8.47;;;7.77;;
46931;SDS011;32670;51.464;11.964;2023-03-20T15:37:15;8.57;;;7.80;;
46931;SDS011;32670;51.464;11.964;2023-03-20T15:39:46;9.33;;;8.53;;
46931;SDS011;32670;51.464;11.964;2023-03-20T15:42:17;8.50;;;7.80;;
46931;SDS011;32670;51.464;11.964;2023-03-20T15:44:45;9.63;;;8.83;;
46931;SDS011;32670;51.464;11.964;2023-03-20T15:47:13;8.73;;;8.00;;
46931;SDS011;32670;51.464;11.964;2023-03-20T15:49:47;8.63;;;7.93;;
46931;SDS011;32670;51.464;11.964;2023-03-20T15:54:46;9.07;;;8.27;;
46931;SDS011;32670;51.464;11.964;2023-03-20T15:57:15;8.60;;;7.80;;
46931;SDS011;32670;51.464;11.964;2023-03-20T15:59:45;8.60;;;7.90;;
46931;SDS011;32670;51.464;11.964;2023-03-20T16:02:10;8.70;;;8.00;;
46931;SDS011;32670;51.464;11.964;2023-03-20T16:04:44;8.57;;;7.87;;
46931;SDS011;32670;51.464;11.964;2023-03-20T16:07:20;8.73;;;7.93;;
46931;SDS011;32670;51.464;11.964;2023-03-20T16:09:48;9.03;;;8.33;;
46931;SDS011;32670;51.464;11.964;2023-03-20T16:12:15;8.80;;;8.10;;
46931;SDS011;32670;51.464;11.964;2023-03-20T16:14:45;8.90;;;8.20;;
46931;SDS011;32670;51.464;11.964;2023-03-20T16:17:12;8.80;;;8.10;;
46931;SDS011;32670;51.464;11.964;2023-03-20T16:19:38;8.53;;;7.80;;
46931;SDS011;32670;51.464;11.964;2023-03-20T16:22:21;8.23;;;7.53;;
46931;SDS011;32670;51.464;11.964;2023-03-20T16:24:51;8.53;;;7.73;;
46931;SDS011;32670;51.464;11.964;2023-03-20T16:27:21;8.53;;;7.83;;